Mound Valley, Kansas
Current Conditions -  °F | °C
As of 7:52 PM on Saturday 22 Nov 2014 (Local Time) from KPPF Reporting Station
Overcast Overcast  
Wind Chill: 56°   Ceiling: 1300
Heat Index: 56°   Visibility: 10mi
Dew Point: 53°   Wind: 10mph
Humidity: 90%   Direction: 180°S
Pressure: 29.8"   Gusts: NA
Location:  37.21°N, 95.4°W
Report Text: KPPF 230152Z AUTO 18009KT 10SM OVC013 13/12 A2980 RMK AO2 SLP087 T01330117
Loading
Personal Weather Stations






























Interactive Weather Map New forecast layout! Learn more

10-Day Weather Forecast

Advertisements
Track Severe Weather on mobile